createdAt,value
2022-09-30T07:23:00.137Z,3.27
2022-09-30T07:27:55.060Z,3.03
2022-09-30T07:32:48.993Z,2.90
2022-09-30T07:37:42.693Z,2.57
2022-09-30T07:42:39.284Z,2.77
2022-09-30T07:47:32.896Z,2.90
2022-09-30T07:52:26.666Z,3.80
2022-09-30T07:57:21.832Z,2.87
2022-09-30T08:02:18.911Z,2.30
2022-09-30T08:07:13.820Z,2.63
2022-09-30T08:12:07.668Z,2.47
2022-09-30T08:17:01.680Z,1.90
2022-09-30T08:21:57.801Z,2.20
2022-09-30T08:26:51.807Z,3.30
2022-09-30T08:31:45.506Z,2.63
2022-09-30T08:36:39.341Z,2.50
2022-09-30T08:42:08.785Z,2.97
2022-09-30T08:47:22.250Z,3.40
2022-09-30T08:52:30.597Z,2.60
2022-09-30T08:57:47.117Z,2.20
2022-09-30T09:02:47.878Z,2.70
2022-09-30T09:07:51.176Z,1.90
2022-09-30T09:12:57.546Z,2.10
2022-09-30T09:18:25.830Z,2.03
2022-09-30T09:23:19.663Z,1.70
2022-09-30T09:28:26.637Z,1.60
2022-09-30T09:33:23.325Z,1.40
2022-09-30T09:38:26.774Z,1.20
2022-09-30T09:43:31.121Z,1.00
2022-09-30T09:48:24.817Z,1.25
2022-09-30T09:53:41.581Z,1.45
2022-09-30T09:58:37.829Z,1.30
2022-09-30T10:03:31.436Z,1.70
2022-09-30T10:08:25.625Z,1.70
2022-09-30T10:13:25.365Z,1.65
2022-09-30T10:18:25.307Z,1.38
2022-09-30T10:23:22.486Z,1.70
2022-09-30T10:28:25.269Z,2.25
2022-09-30T10:33:43.578Z,1.85
2022-09-30T10:43:41.138Z,1.10
2022-09-30T10:48:38.758Z,1.45
2022-09-30T10:53:35.340Z,1.40
2022-09-30T10:58:47.562Z,1.20
2022-09-30T11:03:50.804Z,1.20
2022-09-30T11:08:55.600Z,1.23
2022-09-30T11:13:57.261Z,1.10
2022-09-30T11:18:59.630Z,1.23
2022-09-30T11:23:59.221Z,1.17
2022-09-30T11:29:06.346Z,1.00
2022-09-30T11:34:15.657Z,1.13
2022-09-30T11:39:33.383Z,1.20
2022-09-30T11:44:34.210Z,1.20
2022-09-30T11:49:54.195Z,1.42
2022-09-30T11:55:02.314Z,1.48
2022-09-30T12:00:00.526Z,1.50
2022-09-30T12:05:00.679Z,1.50
2022-09-30T12:10:01.203Z,1.90
2022-09-30T12:14:59.518Z,1.92
2022-09-30T12:19:57.958Z,2.85
2022-09-30T12:24:51.681Z,2.00
2022-09-30T12:30:11.501Z,2.88
2022-09-30T12:35:22.018Z,2.00
2022-09-30T12:40:33.218Z,2.08
2022-09-30T12:45:55.171Z,1.80
2022-09-30T12:50:53.120Z,1.90
2022-09-30T12:55:48.042Z,1.70
2022-09-30T13:00:42.135Z,1.70
2022-09-30T13:05:53.563Z,1.90
2022-09-30T13:10:57.837Z,1.80
2022-09-30T13:15:52.445Z,1.67
2022-09-30T13:20:56.774Z,1.95
2022-09-30T13:25:56.779Z,1.90
2022-09-30T13:30:50.503Z,1.80
2022-09-30T13:35:55.160Z,1.80
2022-09-30T13:41:01.829Z,1.65
2022-09-30T13:45:58.343Z,1.90
2022-09-30T13:50:55.655Z,1.75
2022-09-30T13:55:54.073Z,2.28
2022-09-30T14:00:57.784Z,2.60
2022-09-30T14:05:59.101Z,2.67
2022-09-30T14:11:08.777Z,3.15
2022-09-30T14:16:44.925Z,3.50
2022-09-30T14:21:45.951Z,2.97
2022-09-30T14:27:05.722Z,3.40
2022-09-30T14:32:00.097Z,3.78
2022-09-30T14:36:56.768Z,3.50
2022-09-30T14:41:55.961Z,4.47
2022-09-30T14:46:51.493Z,3.15
2022-09-30T14:51:48.628Z,3.78
2022-09-30T14:56:43.886Z,3.30
2022-09-30T15:01:37.757Z,5.32
2022-09-30T15:06:34.944Z,3.97
2022-09-30T15:11:30.102Z,4.15
2022-09-30T15:16:30.311Z,4.35
2022-09-30T15:21:25.814Z,4.93
2022-09-30T15:26:20.962Z,3.80
2022-09-30T15:31:25.912Z,5.13
2022-09-30T15:36:23.328Z,4.67
2022-09-30T15:41:17.462Z,4.40
2022-09-30T15:46:26.129Z,3.67
2022-09-30T15:51:33.414Z,6.03
2022-09-30T15:56:32.998Z,4.33
2022-09-30T16:01:28.387Z,4.70
2022-09-30T16:06:26.889Z,4.10
2022-09-30T16:11:25.049Z,7.00
2022-09-30T16:16:22.766Z,5.70
2022-09-30T16:21:44.593Z,5.50
2022-09-30T16:26:46.042Z,5.33
2022-09-30T16:31:39.848Z,4.67
2022-09-30T16:36:34.509Z,4.30
2022-09-30T16:41:28.910Z,5.10
2022-09-30T16:46:23.982Z,7.43
2022-09-30T16:51:18.179Z,11.37
2022-09-30T16:56:17.191Z,11.63
